sensor_id;sensor_type;location;lat;lon;timestamp;pressure;altitude;pressure_sealevel;temperature;humidity
84734;BME280;74957;48.082;17.260;2024-01-15T00:00:56;988.088;;;-2.023;96.747
84734;BME280;74957;48.082;17.260;2024-01-15T00:05:59;987.946;;;-2.013;96.533
84734;BME280;74957;48.082;17.260;2024-01-15T00:10:55;987.961;;;-1.983;96.429
84734;BME280;74957;48.082;17.260;2024-01-15T00:15:53;987.934;;;-1.771;96.283
84734;BME280;74957;48.082;17.260;2024-01-15T00:21:14;987.721;;;-1.711;95.605
84734;BME280;74957;48.082;17.260;2024-01-15T00:25:56;987.858;;;-1.62;95.294
84734;BME280;74957;48.082;17.260;2024-01-15T00:31:01;987.634;;;-1.671;94.977
84734;BME280;74957;48.082;17.260;2024-01-15T00:36:00;987.637;;;-1.741;94.769
84734;BME280;74957;48.082;17.260;2024-01-15T00:40:57;987.722;;;-1.781;95.233
84734;BME280;74957;48.082;17.260;2024-01-15T00:45:57;987.698;;;-1.781;95.758
84734;BME280;74957;48.082;17.260;2024-01-15T00:51:02;987.63;;;-1.751;95.923
84734;BME280;74957;48.082;17.260;2024-01-15T00:55:57;987.657;;;-1.681;95.605
84734;BME280;74957;48.082;17.260;2024-01-15T01:01:02;987.516;;;-1.62;95.819
84734;BME280;74957;48.082;17.260;2024-01-15T01:05:55;987.604;;;-1.65;95.605
84734;BME280;74957;48.082;17.260;2024-01-15T01:10:56;987.554;;;-1.671;95.605
84734;BME280;74957;48.082;17.260;2024-01-15T01:15:57;987.643;;;-1.711;95.502
84734;BME280;74957;48.082;17.260;2024-01-15T01:20:54;987.525;;;-1.781;95.441
84734;BME280;74957;48.082;17.260;2024-01-15T01:25:55;987.395;;;-1.801;96.179
84734;BME280;74957;48.082;17.260;2024-01-15T01:30:57;987.308;;;-1.731;95.819
84734;BME280;74957;48.082;17.260;2024-01-15T01:35:56;987.314;;;-1.741;95.502
84734;BME280;74957;48.082;17.260;2024-01-15T01:40:55;987.337;;;-1.741;95.19
84734;BME280;74957;48.082;17.260;2024-01-15T01:46:03;987.315;;;-1.731;95.398
84734;BME280;74957;48.082;17.260;2024-01-15T01:50:57;987.368;;;-1.812;95.02
84734;BME280;74957;48.082;17.260;2024-01-15T01:55:54;987.187;;;-1.862;95.02
84734;BME280;74957;48.082;17.260;2024-01-15T02:00:55;987.288;;;-1.892;95.233
84734;BME280;74957;48.082;17.260;2024-01-15T02:05:56;987.329;;;-1.953;95.758
84734;BME280;74957;48.082;17.260;2024-01-15T02:10:53;987.092;;;-1.993;96.118
84734;BME280;74957;48.082;17.260;2024-01-15T02:15:56;986.994;;;-2.013;96.222
84734;BME280;74957;48.082;17.260;2024-01-15T02:20:56;986.971;;;-2.043;96.222
84734;BME280;74957;48.082;17.260;2024-01-15T02:25:52;986.643;;;-2.023;96.533
84734;BME280;74957;48.082;17.260;2024-01-15T02:30:55;986.839;;;-2.094;96.533
84734;BME280;74957;48.082;17.260;2024-01-15T02:35:59;986.809;;;-2.013;96.533
84734;BME280;74957;48.082;17.260;2024-01-15T02:40:59;986.797;;;-2.073;96.747
84734;BME280;74957;48.082;17.260;2024-01-15T02:45:56;986.615;;;-2.043;97.168
84734;BME280;74957;48.082;17.260;2024-01-15T02:50:54;986.61;;;-2.094;97.375
84734;BME280;74957;48.082;17.260;2024-01-15T02:55:56;986.475;;;-2.013;97.168
84734;BME280;74957;48.082;17.260;2024-01-15T03:00:55;986.402;;;-2.043;97.375
84734;BME280;74957;48.082;17.260;2024-01-15T03:05:55;986.357;;;-2.023;97.272
84734;BME280;74957;48.082;17.260;2024-01-15T03:10:54;986.384;;;-2.013;97.168
84734;BME280;74957;48.082;17.260;2024-01-15T03:15:54;986.503;;;-1.922;97.437
84734;BME280;74957;48.082;17.260;2024-01-15T03:20:57;986.29;;;-1.892;96.912
84734;BME280;74957;48.082;17.260;2024-01-15T03:25:55;986.404;;;-1.852;97.119
84734;BME280;74957;48.082;17.260;2024-01-15T03:30:56;986.496;;;-1.801;96.808
84734;BME280;74957;48.082;17.260;2024-01-15T03:35:56;986.717;;;-1.862;96.912
84734;BME280;74957;48.082;17.260;2024-01-15T03:40:58;986.785;;;-1.852;97.229
84734;BME280;74957;48.082;17.260;2024-01-15T03:45:54;986.675;;;-1.832;97.229
84734;BME280;74957;48.082;17.260;2024-01-15T03:50:56;986.762;;;-1.993;96.533
84734;BME280;74957;48.082;17.260;2024-01-15T03:55:58;986.76;;;-2.124;96.429
84734;BME280;74957;48.082;17.260;2024-01-15T04:00:59;986.555;;;-2.285;96.893
84734;BME280;74957;48.082;17.260;2024-01-15T04:05:55;986.711;;;-2.406;97.571
84734;BME280;74957;48.082;17.260;2024-01-15T04:10:53;986.678;;;-2.506;97.778
84734;BME280;74957;48.082;17.260;2024-01-15T04:15:54;986.599;;;-2.567;97.882
84734;BME280;74957;48.082;17.260;2024-01-15T04:20:52;986.478;;;-2.567;97.675
84734;BME280;74957;48.082;17.260;2024-01-15T04:25:53;986.426;;;-2.617;97.614
84734;BME280;74957;48.082;17.260;2024-01-15T04:30:54;986.078;;;-2.567;97.675
84734;BME280;74957;48.082;17.260;2024-01-15T04:35:55;986.113;;;-2.426;96.204
84734;BME280;74957;48.082;17.260;2024-01-15T04:40:56;985.964;;;-1.892;92.609
84734;BME280;74957;48.082;17.260;2024-01-15T04:45:59;985.85;;;-0.976;87.408
84734;BME280;74957;48.082;17.260;2024-01-15T04:50:54;985.599;;;-0.17;82.227
84734;BME280;74957;48.082;17.260;2024-01-15T04:55:54;985.371;;;0.313;79.437
84734;BME280;74957;48.082;17.260;2024-01-15T05:00:56;985.507;;;0.636;77.588
84734;BME280;74957;48.082;17.260;2024-01-15T05:05:56;985.484;;;0.857;76.508
84734;BME280;74957;48.082;17.260;2024-01-15T05:10:55;985.412;;;0.887;76.611
84734;BME280;74957;48.082;17.260;2024-01-15T05:15:54;985.426;;;0.837;76.611
84734;BME280;74957;48.082;17.260;2024-01-15T05:20:56;985.435;;;0.777;77.271
84734;BME280;74957;48.082;17.260;2024-01-15T05:26:02;985.383;;;0.716;77.588
84734;BME280;74957;48.082;17.260;2024-01-15T05:30:56;985.63;;;0.746;77.588
84734;BME280;74957;48.082;17.260;2024-01-15T05:35:55;985.607;;;0.746;77.899
84734;BME280;74957;48.082;17.260;2024-01-15T05:40:55;985.42;;;0.646;78.21
84734;BME280;74957;48.082;17.260;2024-01-15T05:45:54;985.868;;;0.575;78.668
84734;BME280;74957;48.082;17.260;2024-01-15T05:50:56;985.911;;;0.525;79.083
84734;BME280;74957;48.082;17.260;2024-01-15T05:55:53;986.01;;;0.505;79.504
84734;BME280;74957;48.082;17.260;2024-01-15T06:00:57;985.974;;;0.555;79.504
84734;BME280;74957;48.082;17.260;2024-01-15T06:05:54;986.014;;;0.595;79.15
84734;BME280;74957;48.082;17.260;2024-01-15T06:10:55;986.17;;;0.757;78.003
84734;BME280;74957;48.082;17.260;2024-01-15T06:15:57;986.126;;;0.938;75.775
84734;BME280;74957;48.082;17.260;2024-01-15T06:21:00;986.18;;;1.018;74.42
84734;BME280;74957;48.082;17.260;2024-01-15T06:25:57;986.207;;;0.998;74.213
84734;BME280;74957;48.082;17.260;2024-01-15T06:30:59;986.375;;;0.958;74.628
84734;BME280;74957;48.082;17.260;2024-01-15T06:35:56;986.429;;;0.898;74.835
84734;BME280;74957;48.082;17.260;2024-01-15T06:41:04;986.699;;;0.827;75.568
84734;BME280;74957;48.082;17.260;2024-01-15T06:45:59;986.819;;;0.837;75.775
84734;BME280;74957;48.082;17.260;2024-01-15T06:50:59;986.765;;;0.837;75.879
84734;BME280;74957;48.082;17.260;2024-01-15T06:55:59;986.883;;;0.857;76.196
84734;BME280;74957;48.082;17.260;2024-01-15T07:01:00;986.88;;;0.867;76.3
84734;BME280;74957;48.082;17.260;2024-01-15T07:05:57;987.152;;;0.887;76.508
84734;BME280;74957;48.082;17.260;2024-01-15T07:10:57;987.014;;;0.898;76.3
84734;BME280;74957;48.082;17.260;2024-01-15T07:15:58;987.112;;;1.049;75.531
84734;BME280;74957;48.082;17.260;2024-01-15T07:21:01;987.251;;;1.23;75.22
84734;BME280;74957;48.082;17.260;2024-01-15T07:25:58;987.161;;;1.472;74.738
84734;BME280;74957;48.082;17.260;2024-01-15T07:31:00;986.975;;;1.653;74.316
84734;BME280;74957;48.082;17.260;2024-01-15T07:36:03;987.149;;;1.794;73.969
84734;BME280;74957;48.082;17.260;2024-01-15T07:40:58;987.34;;;2.136;72.968
84734;BME280;74957;48.082;17.260;2024-01-15T07:45:59;987.543;;;2.267;72.028
84734;BME280;74957;48.082;17.260;2024-01-15T07:51:00;987.468;;;2.318;70.886
84734;BME280;74957;48.082;17.260;2024-01-15T07:55:59;987.547;;;2.519;70.227
84734;BME280;74957;48.082;17.260;2024-01-15T08:01:00;987.622;;;2.438;70.331
84734;BME280;74957;48.082;17.260;2024-01-15T08:05:58;987.551;;;2.408;70.227
84734;BME280;74957;48.082;17.260;2024-01-15T08:10:57;987.446;;;2.287;69.946
84734;BME280;74957;48.082;17.260;2024-01-15T08:15:59;987.419;;;2.227;70.05
84734;BME280;74957;48.082;17.260;2024-01-15T08:20:59;987.46;;;2.237;70.258
84734;BME280;74957;48.082;17.260;2024-01-15T08:25:59;987.545;;;2.187;70.05
84734;BME280;74957;48.082;17.260;2024-01-15T08:31:04;987.631;;;2.307;70.154
84734;BME280;74957;48.082;17.260;2024-01-15T08:36:01;987.541;;;2.489;70.435
84734;BME280;74957;48.082;17.260;2024-01-15T08:40:58;987.604;;;2.62;69.47
84734;BME280;74957;48.082;17.260;2024-01-15T08:46:01;987.366;;;3.073;68.262
84734;BME280;74957;48.082;17.260;2024-01-15T08:51:02;987.566;;;3.345;66.986
84734;BME280;74957;48.082;17.260;2024-01-15T08:55:59;987.409;;;3.999;65.027
84734;BME280;74957;48.082;17.260;2024-01-15T09:01:01;987.606;;;4.835;63.562
84734;BME280;74957;48.082;17.260;2024-01-15T09:06:01;987.559;;;5.57;61.096
84734;BME280;74957;48.082;17.260;2024-01-15T09:11:01;987.678;;;5.681;60.138
84734;BME280;74957;48.082;17.260;2024-01-15T09:16:01;987.582;;;5.862;59.387
84734;BME280;74957;48.082;17.260;2024-01-15T09:21:01;987.638;;;5.56;59.546
84734;BME280;74957;48.082;17.260;2024-01-15T09:26:00;987.542;;;5.963;59.387
84734;BME280;74957;48.082;17.260;2024-01-15T09:30:58;987.429;;;6.054;58.844
84734;BME280;74957;48.082;17.260;2024-01-15T09:36:04;987.454;;;6.306;58.301
84734;BME280;74957;48.082;17.260;2024-01-15T09:41:02;987.405;;;6.88;57.318
84734;BME280;74957;48.082;17.260;2024-01-15T09:45:58;987.206;;;7.031;56.158
84734;BME280;74957;48.082;17.260;2024-01-15T09:51:03;987.347;;;7.182;56.03
84734;BME280;74957;48.082;17.260;2024-01-15T09:56:00;987.258;;;6.477;57.263
84734;BME280;74957;48.082;17.260;2024-01-15T10:01:05;987.186;;;6.054;58.533
84734;BME280;74957;48.082;17.260;2024-01-15T10:06:01;987.245;;;6.074;59.253
84734;BME280;74957;48.082;17.260;2024-01-15T10:10:58;987.237;;;6.749;57.727
84734;BME280;74957;48.082;17.260;2024-01-15T10:16:01;987.158;;;7.081;55.951
84734;BME280;74957;48.082;17.260;2024-01-15T10:20:59;987.101;;;7.695;54.742
84734;BME280;74957;48.082;17.260;2024-01-15T10:26:08;987.227;;;7.343;54.382
84734;BME280;74957;48.082;17.260;2024-01-15T10:31:06;987.117;;;7.615;53.711
84734;BME280;74957;48.082;17.260;2024-01-15T10:36:01;986.989;;;7.605;53.302
84734;BME280;74957;48.082;17.260;2024-01-15T10:41:01;987.149;;;7.595;53.094
84734;BME280;74957;48.082;17.260;2024-01-15T10:46:01;986.964;;;6.447;54.688
84734;BME280;74957;48.082;17.260;2024-01-15T10:51:01;986.941;;;6.577;55.383
84734;BME280;74957;48.082;17.260;2024-01-15T10:56:05;987.134;;;7.031;54.51
84734;BME280;74957;48.082;17.260;2024-01-15T11:01:00;986.948;;;7.776;52.887
84734;BME280;74957;48.082;17.260;2024-01-15T11:05:59;986.874;;;7.937;52.454
84734;BME280;74957;48.082;17.260;2024-01-15T11:10:59;986.688;;;7.091;54.303
84734;BME280;74957;48.082;17.260;2024-01-15T11:16:03;986.769;;;7.021;54.51
84734;BME280;74957;48.082;17.260;2024-01-15T11:21:33;986.736;;;7.615;54.126
84734;BME280;74957;48.082;17.260;2024-01-15T11:25:59;986.701;;;7.705;54.224
84734;BME280;74957;48.082;17.260;2024-01-15T11:31:03;986.788;;;7.846;54.095
84734;BME280;74957;48.082;17.260;2024-01-15T11:35:59;986.555;;;8.048;53.87
84734;BME280;74957;48.082;17.260;2024-01-15T11:40:57;986.618;;;7.514;54.663
84734;BME280;74957;48.082;17.260;2024-01-15T11:46:05;986.652;;;7.182;54.999
84734;BME280;74957;48.082;17.260;2024-01-15T11:50:59;986.497;;;6.215;56.671
84734;BME280;74957;48.082;17.260;2024-01-15T11:56:05;986.291;;;5.409;59.131
84734;BME280;74957;48.082;17.260;2024-01-15T12:00:59;986.276;;;5.319;60.193
84734;BME280;74957;48.082;17.260;2024-01-15T12:06:04;986.119;;;5.379;60.37
84734;BME280;74957;48.082;17.260;2024-01-15T12:11:04;985.88;;;5.178;60.706
84734;BME280;74957;48.082;17.260;2024-01-15T12:15:57;986.081;;;5.278;60.089
84734;BME280;74957;48.082;17.260;2024-01-15T12:20:58;985.885;;;5.268;60.193
84734;BME280;74957;48.082;17.260;2024-01-15T12:25:58;985.75;;;5.127;60.321
84734;BME280;74957;48.082;17.260;2024-01-15T12:31:05;985.752;;;5.016;61.462
84734;BME280;74957;48.082;17.260;2024-01-15T12:35:57;985.802;;;4.956;61.462
84734;BME280;74957;48.082;17.260;2024-01-15T12:40:59;985.875;;;4.906;61.694
84734;BME280;74957;48.082;17.260;2024-01-15T12:46:01;985.826;;;4.775;61.902
84734;BME280;74957;48.082;17.260;2024-01-15T12:50:58;985.631;;;4.533;61.932
84734;BME280;74957;48.082;17.260;2024-01-15T12:55:59;985.758;;;4.654;62.762
84734;BME280;74957;48.082;17.260;2024-01-15T13:01:00;985.769;;;4.634;62.866
84734;BME280;74957;48.082;17.260;2024-01-15T13:05:58;985.744;;;4.684;62.762
84734;BME280;74957;48.082;17.260;2024-01-15T13:10:58;985.712;;;4.745;62.732
84734;BME280;74957;48.082;17.260;2024-01-15T13:16:04;985.797;;;4.724;63.043
84734;BME280;74957;48.082;17.260;2024-01-15T13:21:01;985.513;;;4.624;62.762
84734;BME280;74957;48.082;17.260;2024-01-15T13:26:04;985.381;;;4.473;63.409
84734;BME280;74957;48.082;17.260;2024-01-15T13:30:58;985.521;;;4.231;63.855
84734;BME280;74957;48.082;17.260;2024-01-15T13:35:59;985.414;;;4.12;64.893
84734;BME280;74957;48.082;17.260;2024-01-15T13:41:04;985.509;;;3.929;65.961
84734;BME280;74957;48.082;17.260;2024-01-15T13:45:59;985.394;;;3.798;65.68
84734;BME280;74957;48.082;17.260;2024-01-15T13:51:03;985.486;;;3.818;65.784
84734;BME280;74957;48.082;17.260;2024-01-15T13:55:59;985.394;;;3.828;65.784
84734;BME280;74957;48.082;17.260;2024-01-15T14:01:01;985.32;;;3.647;65.472
84734;BME280;74957;48.082;17.260;2024-01-15T14:05:59;985.352;;;3.556;65.704
84734;BME280;74957;48.082;17.260;2024-01-15T14:11:01;985.38;;;3.435;65.808
84734;BME280;74957;48.082;17.260;2024-01-15T14:16:03;985.478;;;3.435;66.327
84734;BME280;74957;48.082;17.260;2024-01-15T14:20:58;985.546;;;3.425;66.644
84734;BME280;74957;48.082;17.260;2024-01-15T14:26:05;985.798;;;3.425;67.163
84734;BME280;74957;48.082;17.260;2024-01-15T14:30:58;985.848;;;3.375;67.297
84734;BME280;74957;48.082;17.260;2024-01-15T14:36:06;985.884;;;3.355;67.401
84734;BME280;74957;48.082;17.260;2024-01-15T14:41:02;985.94;;;3.174;67.95
84734;BME280;74957;48.082;17.260;2024-01-15T14:45:58;986.035;;;3.073;68.988
84734;BME280;74957;48.082;17.260;2024-01-15T14:50:57;986.023;;;2.861;69.33
84734;BME280;74957;48.082;17.260;2024-01-15T14:56:02;985.902;;;2.74;69.574
84734;BME280;74957;48.082;17.260;2024-01-15T15:01:01;985.975;;;2.63;71.027
84734;BME280;74957;48.082;17.260;2024-01-15T15:05:58;986.217;;;2.549;70.197
84734;BME280;74957;48.082;17.260;2024-01-15T15:11:03;985.951;;;2.529;70.642
84734;BME280;74957;48.082;17.260;2024-01-15T15:15:57;986.049;;;2.469;70.227
84734;BME280;74957;48.082;17.260;2024-01-15T15:20:58;986.019;;;2.418;70.227
84734;BME280;74957;48.082;17.260;2024-01-15T15:25:55;985.959;;;2.408;70.435
84734;BME280;74957;48.082;17.260;2024-01-15T15:30:57;986.101;;;2.257;70.886
84734;BME280;74957;48.082;17.260;2024-01-15T15:36:00;986.07;;;2.237;70.782
84734;BME280;74957;48.082;17.260;2024-01-15T15:40:57;986.149;;;2.197;70.886
84734;BME280;74957;48.082;17.260;2024-01-15T15:45:55;986.554;;;2.156;71.509
84734;BME280;74957;48.082;17.260;2024-01-15T15:50:55;986.357;;;2.156;71.613
84734;BME280;74957;48.082;17.260;2024-01-15T15:56:00;986.433;;;2.187;71.924
84734;BME280;74957;48.082;17.260;2024-01-15T16:00:55;986.438;;;2.086;72.375
84734;BME280;74957;48.082;17.260;2024-01-15T16:05:57;986.305;;;2.166;71.82
84734;BME280;74957;48.082;17.260;2024-01-15T16:10:55;986.381;;;2.166;72.028
84734;BME280;74957;48.082;17.260;2024-01-15T16:15:53;986.432;;;2.187;71.613
84734;BME280;74957;48.082;17.260;2024-01-15T16:20:53;986.486;;;2.166;71.924
84734;BME280;74957;48.082;17.260;2024-01-15T16:25:56;986.7;;;2.116;72.272
84734;BME280;74957;48.082;17.260;2024-01-15T16:30:57;986.745;;;2.056;72.791
84734;BME280;74957;48.082;17.260;2024-01-15T16:35:54;986.663;;;2.015;72.583
84734;BME280;74957;48.082;17.260;2024-01-15T16:40:54;986.811;;;1.975;73.315
84734;BME280;74957;48.082;17.260;2024-01-15T16:45:57;986.721;;;1.935;73.419
84734;BME280;74957;48.082;17.260;2024-01-15T16:50:57;986.523;;;1.905;73.206
84734;BME280;74957;48.082;17.260;2024-01-15T16:55:57;986.62;;;2.025;72.583
84734;BME280;74957;48.082;17.260;2024-01-15T17:00:52;986.7;;;2.086;72.583
84734;BME280;74957;48.082;17.260;2024-01-15T17:05:56;986.62;;;2.207;72.235
84734;BME280;74957;48.082;17.260;2024-01-15T17:10:55;986.823;;;2.136;72.552
84734;BME280;74957;48.082;17.260;2024-01-15T17:15:55;986.713;;;2.156;73.383
84734;BME280;74957;48.082;17.260;2024-01-15T17:20:57;986.67;;;2.187;72.656
84734;BME280;74957;48.082;17.260;2024-01-15T17:25:57;986.699;;;1.985;72.375
84734;BME280;74957;48.082;17.260;2024-01-15T17:30:58;986.623;;;1.955;72.791
84734;BME280;74957;48.082;17.260;2024-01-15T17:35:58;986.506;;;1.774;72.827
84734;BME280;74957;48.082;17.260;2024-01-15T17:40:59;986.544;;;1.733;72.931
84734;BME280;74957;48.082;17.260;2024-01-15T17:45:54;986.749;;;1.794;72.302
84734;BME280;74957;48.082;17.260;2024-01-15T17:50:54;986.78;;;1.794;72.51
84734;BME280;74957;48.082;17.260;2024-01-15T17:55:56;986.595;;;1.754;72.51
84734;BME280;74957;48.082;17.260;2024-01-15T18:01:00;986.614;;;1.774;72.406
84734;BME280;74957;48.082;17.260;2024-01-15T18:05:58;986.82;;;1.764;72.302
84734;BME280;74957;48.082;17.260;2024-01-15T18:10:55;986.925;;;1.834;72.51
84734;BME280;74957;48.082;17.260;2024-01-15T18:15:58;986.851;;;1.824;72.62
84734;BME280;74957;48.082;17.260;2024-01-15T18:25:57;986.896;;;1.663;73.59
84734;BME280;74957;48.082;17.260;2024-01-15T18:35:05;987.054;;;1.582;74.109
84734;BME280;74957;48.082;17.260;2024-01-15T18:35:57;987.113;;;1.532;74.213
84734;BME280;74957;48.082;17.260;2024-01-15T18:40:56;986.958;;;1.552;74.005
84734;BME280;74957;48.082;17.260;2024-01-15T18:45:55;987.018;;;1.532;74.316
84734;BME280;74957;48.082;17.260;2024-01-15T18:50:59;987.123;;;1.401;74.976
84734;BME280;74957;48.082;17.260;2024-01-15T18:55:54;987.133;;;1.391;75.183
84734;BME280;74957;48.082;17.260;2024-01-15T19:00:56;987.312;;;1.29;75.5
84734;BME280;74957;48.082;17.260;2024-01-15T19:05:55;987.379;;;1.3;75.5
84734;BME280;74957;48.082;17.260;2024-01-15T19:10:56;987.445;;;1.29;75.604
84734;BME280;74957;48.082;17.260;2024-01-15T19:15:55;987.404;;;1.23;75.745
84734;BME280;74957;48.082;17.260;2024-01-15T19:20:53;987.533;;;1.23;75.745
84734;BME280;74957;48.082;17.260;2024-01-15T19:25:55;987.389;;;1.139;76.16
84734;BME280;74957;48.082;17.260;2024-01-15T19:30:54;987.423;;;1.049;76.471
84734;BME280;74957;48.082;17.260;2024-01-15T19:35:55;987.499;;;1.039;76.892
84734;BME280;74957;48.082;17.260;2024-01-15T19:40:54;987.487;;;0.968;76.819
84734;BME280;74957;48.082;17.260;2024-01-15T19:46:02;987.345;;;0.958;77.136
84734;BME280;74957;48.082;17.260;2024-01-15T19:50:59;987.325;;;0.938;77.24
84734;BME280;74957;48.082;17.260;2024-01-15T19:55:57;987.292;;;0.887;77.136
84734;BME280;74957;48.082;17.260;2024-01-15T20:00:54;987.426;;;0.918;77.344
84734;BME280;74957;48.082;17.260;2024-01-15T20:05:57;987.59;;;0.867;77.655
84734;BME280;74957;48.082;17.260;2024-01-15T20:10:55;987.642;;;0.887;77.759
84734;BME280;74957;48.082;17.260;2024-01-15T20:15:55;987.597;;;0.867;77.863
84734;BME280;74957;48.082;17.260;2024-01-15T20:20:57;987.617;;;0.746;77.795
84734;BME280;74957;48.082;17.260;2024-01-15T20:25:56;987.642;;;0.575;78.351
84734;BME280;74957;48.082;17.260;2024-01-15T20:30:57;987.584;;;0.394;78.668
84734;BME280;74957;48.082;17.260;2024-01-15T20:35:54;987.598;;;0.283;79.852
84734;BME280;74957;48.082;17.260;2024-01-15T20:40:57;987.681;;;0.374;80.792
84734;BME280;74957;48.082;17.260;2024-01-15T20:45:58;987.863;;;0.454;81.281
84734;BME280;74957;48.082;17.260;2024-01-15T20:51:00;987.789;;;0.555;82.117
84734;BME280;74957;48.082;17.260;2024-01-15T20:55:54;987.883;;;0.535;82.635
84734;BME280;74957;48.082;17.260;2024-01-15T21:05:57;987.804;;;0.454;83.679
84734;BME280;74957;48.082;17.260;2024-01-15T21:10:56;987.792;;;0.384;83.508
84734;BME280;74957;48.082;17.260;2024-01-15T21:15:56;987.972;;;0.384;84.137
84734;BME280;74957;48.082;17.260;2024-01-15T21:20:54;987.788;;;0.505;84.619
84734;BME280;74957;48.082;17.260;2024-01-15T21:25:56;987.863;;;0.918;84.857
84734;BME280;74957;48.082;17.260;2024-01-15T21:30:58;987.867;;;1.22;84.296
84734;BME280;74957;48.082;17.260;2024-01-15T21:35:57;987.947;;;1.361;84.155
84734;BME280;74957;48.082;17.260;2024-01-15T21:40:54;988.021;;;1.371;83.948
84734;BME280;74957;48.082;17.260;2024-01-15T21:46:03;988.199;;;1.391;83.948
84734;BME280;74957;48.082;17.260;2024-01-15T21:51:03;988.218;;;1.391;83.948
84734;BME280;74957;48.082;17.260;2024-01-15T21:56:03;988.364;;;1.411;83.948
84734;BME280;74957;48.082;17.260;2024-01-15T22:00:54;988.435;;;1.371;83.948
84734;BME280;74957;48.082;17.260;2024-01-15T22:05:59;988.579;;;1.361;83.844
84734;BME280;74957;48.082;17.260;2024-01-15T22:10:56;988.51;;;1.3;83.63
84734;BME280;74957;48.082;17.260;2024-01-15T22:15:58;988.508;;;1.361;83.74
84734;BME280;74957;48.082;17.260;2024-01-15T22:20:55;988.577;;;1.25;83.673
84734;BME280;74957;48.082;17.260;2024-01-15T22:26:01;988.443;;;1.28;83.527
84734;BME280;74957;48.082;17.260;2024-01-15T22:30:55;988.746;;;1.18;83.881
84734;BME280;74957;48.082;17.260;2024-01-15T22:35:56;988.582;;;1.139;83.569
84734;BME280;74957;48.082;17.260;2024-01-15T22:40:53;988.793;;;1.18;82.941
84734;BME280;74957;48.082;17.260;2024-01-15T22:45:57;988.64;;;1.28;81.964
84734;BME280;74957;48.082;17.260;2024-01-15T22:50:54;988.778;;;1.331;81.024
84734;BME280;74957;48.082;17.260;2024-01-15T22:55:55;988.692;;;1.461;79.669
84734;BME280;74957;48.082;17.260;2024-01-15T23:01:40;988.68;;;1.532;78.802
84734;BME280;74957;48.082;17.260;2024-01-15T23:05:59;988.405;;;1.532;78.906
84734;BME280;74957;48.082;17.260;2024-01-15T23:10:56;988.577;;;1.572;78.693
84734;BME280;74957;48.082;17.260;2024-01-15T23:15:56;988.704;;;1.592;78.278
84734;BME280;74957;48.082;17.260;2024-01-15T23:20:57;988.757;;;1.532;78.07
84734;BME280;74957;48.082;17.260;2024-01-15T23:26:02;988.675;;;1.502;78.278
84734;BME280;74957;48.082;17.260;2024-01-15T23:30:55;988.913;;;1.552;78.485
84734;BME280;74957;48.082;17.260;2024-01-15T23:35:56;988.912;;;1.482;78.381
84734;BME280;74957;48.082;17.260;2024-01-15T23:40:56;989.151;;;1.431;78.107
84734;BME280;74957;48.082;17.260;2024-01-15T23:45:54;989.107;;;1.472;77.863
84734;BME280;74957;48.082;17.260;2024-01-15T23:50:59;989.02;;;1.482;77.966
84734;BME280;74957;48.082;17.260;2024-01-15T23:55:59;989.159;;;1.411;77.478
